sensor_id;sensor_type;location;lat;lon;timestamp;temperature;humidity
13880;DHT22;7010;48.200;16.332;2022-10-23T00:00:04;13.80;99.90
13880;DHT22;7010;48.200;16.332;2022-10-23T00:02:32;13.80;99.90
13880;DHT22;7010;48.200;16.332;2022-10-23T00:05:00;13.80;99.90
13880;DHT22;7010;48.200;16.332;2022-10-23T00:07:32;13.70;99.90
13880;DHT22;7010;48.200;16.332;2022-10-23T00:10:00;13.70;99.90
13880;DHT22;7010;48.200;16.332;2022-10-23T00:12:29;13.60;99.90
13880;DHT22;7010;48.200;16.332;2022-10-23T00:14:57;13.60;99.90
13880;DHT22;7010;48.200;16.332;2022-10-23T00:17:27;13.60;99.90
13880;DHT22;7010;48.200;16.332;2022-10-23T00:20:05;13.50;99.90
13880;DHT22;7010;48.200;16.332;2022-10-23T00:22:53;13.40;99.90
13880;DHT22;7010;48.200;16.332;2022-10-23T00:29:19;13.30;99.90
13880;DHT22;7010;48.200;16.332;2022-10-23T00:31:56;13.30;99.90
13880;DHT22;7010;48.200;16.332;2022-10-23T00:34:55;13.20;99.90
13880;DHT22;7010;48.200;16.332;2022-10-23T00:38:13;13.20;99.90
13880;DHT22;7010;48.200;16.332;2022-10-23T00:41:31;13.20;99.90
13880;DHT22;7010;48.200;16.332;2022-10-23T00:45:12;13.20;99.90
13880;DHT22;7010;48.200;16.332;2022-10-23T00:48:24;13.20;99.90
13880;DHT22;7010;48.200;16.332;2022-10-23T00:51:27;13.30;99.90
13880;DHT22;7010;48.200;16.332;2022-10-23T00:55:25;13.40;99.90
13880;DHT22;7010;48.200;16.332;2022-10-23T00:57:24;13.40;99.90
13880;DHT22;7010;48.200;16.332;2022-10-23T01:00:21;13.40;99.90
13880;DHT22;7010;48.200;16.332;2022-10-23T01:03:06;13.40;99.90
13880;DHT22;7010;48.200;16.332;2022-10-23T01:05:58;13.40;99.90
13880;DHT22;7010;48.200;16.332;2022-10-23T01:08:43;13.40;99.90
13880;DHT22;7010;48.200;16.332;2022-10-23T01:11:26;13.30;99.90
13880;DHT22;7010;48.200;16.332;2022-10-23T01:14:16;13.20;99.90
13880;DHT22;7010;48.200;16.332;2022-10-23T01:16:59;13.10;99.90
13880;DHT22;7010;48.200;16.332;2022-10-23T01:20:10;13.00;99.90
13880;DHT22;7010;48.200;16.332;2022-10-23T01:29:13;12.80;99.90
13880;DHT22;7010;48.200;16.332;2022-10-23T01:31:59;12.80;99.90
13880;DHT22;7010;48.200;16.332;2022-10-23T01:35:14;12.80;99.90
13880;DHT22;7010;48.200;16.332;2022-10-23T01:38:04;12.70;99.90
13880;DHT22;7010;48.200;16.332;2022-10-23T01:41:10;12.60;99.90
13880;DHT22;7010;48.200;16.332;2022-10-23T01:47:47;12.50;99.90
13880;DHT22;7010;48.200;16.332;2022-10-23T01:50:23;12.40;99.90
13880;DHT22;7010;48.200;16.332;2022-10-23T01:52:53;12.40;99.90
13880;DHT22;7010;48.200;16.332;2022-10-23T01:55:24;12.40;99.90
13880;DHT22;7010;48.200;16.332;2022-10-23T01:58:09;12.40;99.90
13880;DHT22;7010;48.200;16.332;2022-10-23T02:01:01;12.30;99.90
13880;DHT22;7010;48.200;16.332;2022-10-23T02:03:42;12.30;99.90
13880;DHT22;7010;48.200;16.332;2022-10-23T02:06:30;12.30;99.90
13880;DHT22;7010;48.200;16.332;2022-10-23T02:09:07;12.30;99.90
13880;DHT22;7010;48.200;16.332;2022-10-23T02:12:16;12.30;99.90
13880;DHT22;7010;48.200;16.332;2022-10-23T02:15:00;12.30;99.90
13880;DHT22;7010;48.200;16.332;2022-10-23T02:17:47;12.30;99.90
13880;DHT22;7010;48.200;16.332;2022-10-23T02:20:35;12.30;99.90
13880;DHT22;7010;48.200;16.332;2022-10-23T02:23:16;12.20;99.90
13880;DHT22;7010;48.200;16.332;2022-10-23T02:25:54;12.10;99.90
13880;DHT22;7010;48.200;16.332;2022-10-23T02:28:41;12.00;99.90
13880;DHT22;7010;48.200;16.332;2022-10-23T02:31:17;11.90;99.90
13880;DHT22;7010;48.200;16.332;2022-10-23T02:33:54;11.90;99.90
13880;DHT22;7010;48.200;16.332;2022-10-23T02:36:47;11.90;99.90
13880;DHT22;7010;48.200;16.332;2022-10-23T02:39:25;11.80;99.90
13880;DHT22;7010;48.200;16.332;2022-10-23T02:42:07;11.70;99.90
13880;DHT22;7010;48.200;16.332;2022-10-23T02:45:02;11.70;99.90
13880;DHT22;7010;48.200;16.332;2022-10-23T02:47:45;11.80;99.90
13880;DHT22;7010;48.200;16.332;2022-10-23T02:50:26;11.70;99.90
13880;DHT22;7010;48.200;16.332;2022-10-23T02:53:05;11.70;99.90
13880;DHT22;7010;48.200;16.332;2022-10-23T02:55:48;11.70;99.90
13880;DHT22;7010;48.200;16.332;2022-10-23T02:58:25;11.70;99.90
13880;DHT22;7010;48.200;16.332;2022-10-23T03:00:58;11.60;99.90
13880;DHT22;7010;48.200;16.332;2022-10-23T03:03:34;11.60;99.90
13880;DHT22;7010;48.200;16.332;2022-10-23T03:06:03;11.60;99.90
13880;DHT22;7010;48.200;16.332;2022-10-23T03:08:41;11.60;99.90
13880;DHT22;7010;48.200;16.332;2022-10-23T03:11:14;11.50;99.90
13880;DHT22;7010;48.200;16.332;2022-10-23T03:13:45;11.50;99.90
13880;DHT22;7010;48.200;16.332;2022-10-23T03:16:17;11.50;99.90
13880;DHT22;7010;48.200;16.332;2022-10-23T03:18:46;11.50;99.90
13880;DHT22;7010;48.200;16.332;2022-10-23T03:21:20;11.40;99.90
13880;DHT22;7010;48.200;16.332;2022-10-23T03:23:55;11.40;99.90
13880;DHT22;7010;48.200;16.332;2022-10-23T03:26:29;11.40;99.90
13880;DHT22;7010;48.200;16.332;2022-10-23T03:29:00;11.40;99.90
13880;DHT22;7010;48.200;16.332;2022-10-23T03:31:29;11.30;99.90
13880;DHT22;7010;48.200;16.332;2022-10-23T03:34:00;11.30;99.90
13880;DHT22;7010;48.200;16.332;2022-10-23T03:36:34;11.30;99.90
13880;DHT22;7010;48.200;16.332;2022-10-23T03:39:06;11.30;99.90
13880;DHT22;7010;48.200;16.332;2022-10-23T03:41:36;11.20;99.90
13880;DHT22;7010;48.200;16.332;2022-10-23T03:44:07;11.20;99.90
13880;DHT22;7010;48.200;16.332;2022-10-23T03:46:41;11.10;99.90
13880;DHT22;7010;48.200;16.332;2022-10-23T03:49:13;11.10;99.90
13880;DHT22;7010;48.200;16.332;2022-10-23T03:51:41;11.10;99.90
13880;DHT22;7010;48.200;16.332;2022-10-23T03:54:24;11.10;99.90
13880;DHT22;7010;48.200;16.332;2022-10-23T03:56:59;11.00;99.90
13880;DHT22;7010;48.200;16.332;2022-10-23T03:59:31;11.00;99.90
13880;DHT22;7010;48.200;16.332;2022-10-23T04:02:09;11.00;99.90
13880;DHT22;7010;48.200;16.332;2022-10-23T04:04:53;11.00;99.90
13880;DHT22;7010;48.200;16.332;2022-10-23T04:07:36;10.90;99.90
13880;DHT22;7010;48.200;16.332;2022-10-23T04:10:07;10.90;99.90
13880;DHT22;7010;48.200;16.332;2022-10-23T04:12:38;10.80;99.90
13880;DHT22;7010;48.200;16.332;2022-10-23T04:15:09;10.70;99.90
13880;DHT22;7010;48.200;16.332;2022-10-23T04:17:38;10.70;99.90
13880;DHT22;7010;48.200;16.332;2022-10-23T04:20:14;10.70;99.90
13880;DHT22;7010;48.200;16.332;2022-10-23T04:22:43;10.70;99.90
13880;DHT22;7010;48.200;16.332;2022-10-23T04:25:16;10.70;99.90
13880;DHT22;7010;48.200;16.332;2022-10-23T04:27:44;10.70;99.90
13880;DHT22;7010;48.200;16.332;2022-10-23T04:30:22;10.70;99.90
13880;DHT22;7010;48.200;16.332;2022-10-23T04:32:52;10.60;99.90
13880;DHT22;7010;48.200;16.332;2022-10-23T04:35:21;10.60;99.90
13880;DHT22;7010;48.200;16.332;2022-10-23T04:37:49;10.60;99.90
13880;DHT22;7010;48.200;16.332;2022-10-23T04:40:22;10.60;99.90
13880;DHT22;7010;48.200;16.332;2022-10-23T04:42:51;10.50;99.90
13880;DHT22;7010;48.200;16.332;2022-10-23T04:45:19;10.50;99.90
13880;DHT22;7010;48.200;16.332;2022-10-23T04:47:48;10.50;99.90
13880;DHT22;7010;48.200;16.332;2022-10-23T04:50:16;10.50;99.90
13880;DHT22;7010;48.200;16.332;2022-10-23T04:52:45;10.50;99.90
13880;DHT22;7010;48.200;16.332;2022-10-23T04:55:17;10.50;99.90
13880;DHT22;7010;48.200;16.332;2022-10-23T04:57:47;10.40;99.90
13880;DHT22;7010;48.200;16.332;2022-10-23T05:00:17;10.40;99.90
13880;DHT22;7010;48.200;16.332;2022-10-23T05:02:49;10.40;99.90
13880;DHT22;7010;48.200;16.332;2022-10-23T05:05:18;10.40;99.90
13880;DHT22;7010;48.200;16.332;2022-10-23T05:07:50;10.30;99.90
13880;DHT22;7010;48.200;16.332;2022-10-23T05:10:50;10.30;99.90
13880;DHT22;7010;48.200;16.332;2022-10-23T05:13:36;10.20;99.90
13880;DHT22;7010;48.200;16.332;2022-10-23T05:16:28;10.20;99.90
13880;DHT22;7010;48.200;16.332;2022-10-23T05:19:01;10.10;99.90
13880;DHT22;7010;48.200;16.332;2022-10-23T05:21:32;10.10;99.90
13880;DHT22;7010;48.200;16.332;2022-10-23T05:24:06;10.10;99.90
13880;DHT22;7010;48.200;16.332;2022-10-23T05:26:35;10.10;99.90
13880;DHT22;7010;48.200;16.332;2022-10-23T05:29:08;10.10;99.90
13880;DHT22;7010;48.200;16.332;2022-10-23T05:31:52;10.10;99.90
13880;DHT22;7010;48.200;16.332;2022-10-23T05:34:29;10.10;99.90
13880;DHT22;7010;48.200;16.332;2022-10-23T05:36:59;10.20;99.90
13880;DHT22;7010;48.200;16.332;2022-10-23T05:39:28;10.20;99.90
13880;DHT22;7010;48.200;16.332;2022-10-23T05:41:57;10.20;99.90
13880;DHT22;7010;48.200;16.332;2022-10-23T05:44:30;10.20;99.90
13880;DHT22;7010;48.200;16.332;2022-10-23T05:46:58;10.20;99.90
13880;DHT22;7010;48.200;16.332;2022-10-23T05:49:35;10.20;99.90
13880;DHT22;7010;48.200;16.332;2022-10-23T05:52:04;10.20;99.90
13880;DHT22;7010;48.200;16.332;2022-10-23T05:54:33;10.20;99.90
13880;DHT22;7010;48.200;16.332;2022-10-23T05:57:04;10.10;99.90
13880;DHT22;7010;48.200;16.332;2022-10-23T05:59:39;10.20;99.90
13880;DHT22;7010;48.200;16.332;2022-10-23T06:02:22;10.10;99.90
13880;DHT22;7010;48.200;16.332;2022-10-23T06:04:52;10.20;99.90
13880;DHT22;7010;48.200;16.332;2022-10-23T06:07:24;10.30;99.90
13880;DHT22;7010;48.200;16.332;2022-10-23T06:09:57;10.30;99.90
13880;DHT22;7010;48.200;16.332;2022-10-23T06:12:30;10.40;99.90
13880;DHT22;7010;48.200;16.332;2022-10-23T06:15:00;10.30;99.90
13880;DHT22;7010;48.200;16.332;2022-10-23T06:17:29;10.40;99.90
13880;DHT22;7010;48.200;16.332;2022-10-23T06:19:58;10.40;99.90
13880;DHT22;7010;48.200;16.332;2022-10-23T06:22:33;10.30;99.90
13880;DHT22;7010;48.200;16.332;2022-10-23T06:25:07;10.40;99.90
13880;DHT22;7010;48.200;16.332;2022-10-23T06:27:35;10.40;99.90
13880;DHT22;7010;48.200;16.332;2022-10-23T06:30:07;10.40;99.90
13880;DHT22;7010;48.200;16.332;2022-10-23T06:32:42;10.40;99.90
13880;DHT22;7010;48.200;16.332;2022-10-23T06:35:20;10.40;99.90
13880;DHT22;7010;48.200;16.332;2022-10-23T06:37:49;10.40;99.90
13880;DHT22;7010;48.200;16.332;2022-10-23T06:40:17;10.50;99.90
13880;DHT22;7010;48.200;16.332;2022-10-23T06:42:49;10.50;99.90
13880;DHT22;7010;48.200;16.332;2022-10-23T06:45:22;10.50;99.90
13880;DHT22;7010;48.200;16.332;2022-10-23T06:47:51;10.50;99.90
13880;DHT22;7010;48.200;16.332;2022-10-23T06:50:22;10.50;99.90
13880;DHT22;7010;48.200;16.332;2022-10-23T06:52:56;10.50;99.90
13880;DHT22;7010;48.200;16.332;2022-10-23T06:55:29;10.60;99.90
13880;DHT22;7010;48.200;16.332;2022-10-23T06:57:57;10.60;99.90
13880;DHT22;7010;48.200;16.332;2022-10-23T07:00:28;10.60;99.90
13880;DHT22;7010;48.200;16.332;2022-10-23T07:02:57;10.60;99.90
13880;DHT22;7010;48.200;16.332;2022-10-23T07:05:26;10.60;99.90
13880;DHT22;7010;48.200;16.332;2022-10-23T07:07:55;10.70;99.90
13880;DHT22;7010;48.200;16.332;2022-10-23T07:10:26;10.70;99.90
13880;DHT22;7010;48.200;16.332;2022-10-23T07:12:55;10.80;99.90
13880;DHT22;7010;48.200;16.332;2022-10-23T07:15:29;10.80;99.90
13880;DHT22;7010;48.200;16.332;2022-10-23T07:18:02;10.90;99.90
13880;DHT22;7010;48.200;16.332;2022-10-23T07:20:47;10.90;99.90
13880;DHT22;7010;48.200;16.332;2022-10-23T07:23:22;11.00;99.90
13880;DHT22;7010;48.200;16.332;2022-10-23T07:26:02;11.00;99.90
13880;DHT22;7010;48.200;16.332;2022-10-23T07:28:37;11.10;99.90
13880;DHT22;7010;48.200;16.332;2022-10-23T07:31:18;11.20;99.90
13880;DHT22;7010;48.200;16.332;2022-10-23T07:33:52;11.20;99.90
13880;DHT22;7010;48.200;16.332;2022-10-23T07:36:21;11.20;99.90
13880;DHT22;7010;48.200;16.332;2022-10-23T07:38:50;11.30;99.90
13880;DHT22;7010;48.200;16.332;2022-10-23T07:41:20;11.30;99.90
13880;DHT22;7010;48.200;16.332;2022-10-23T07:43:52;11.40;99.90
13880;DHT22;7010;48.200;16.332;2022-10-23T07:46:22;11.40;99.90
13880;DHT22;7010;48.200;16.332;2022-10-23T07:48:51;11.40;99.90
13880;DHT22;7010;48.200;16.332;2022-10-23T07:51:22;11.50;99.90
13880;DHT22;7010;48.200;16.332;2022-10-23T07:53:51;11.50;99.90
13880;DHT22;7010;48.200;16.332;2022-10-23T07:56:22;11.50;99.90
13880;DHT22;7010;48.200;16.332;2022-10-23T07:58:52;11.70;99.90
13880;DHT22;7010;48.200;16.332;2022-10-23T08:01:26;11.70;99.90
13880;DHT22;7010;48.200;16.332;2022-10-23T08:04:00;11.80;99.90
13880;DHT22;7010;48.200;16.332;2022-10-23T08:06:37;11.90;99.90
13880;DHT22;7010;48.200;16.332;2022-10-23T08:09:06;12.00;99.90
13880;DHT22;7010;48.200;16.332;2022-10-23T08:11:44;12.20;99.90
13880;DHT22;7010;48.200;16.332;2022-10-23T08:14:12;12.20;99.90
13880;DHT22;7010;48.200;16.332;2022-10-23T08:16:42;12.30;99.90
13880;DHT22;7010;48.200;16.332;2022-10-23T08:19:11;12.40;99.90
13880;DHT22;7010;48.200;16.332;2022-10-23T08:21:40;12.50;99.90
13880;DHT22;7010;48.200;16.332;2022-10-23T08:24:11;12.60;99.90
13880;DHT22;7010;48.200;16.332;2022-10-23T08:26:40;12.70;99.90
13880;DHT22;7010;48.200;16.332;2022-10-23T08:29:09;12.80;99.90
13880;DHT22;7010;48.200;16.332;2022-10-23T08:31:37;12.90;99.90
13880;DHT22;7010;48.200;16.332;2022-10-23T08:34:07;13.00;99.90
13880;DHT22;7010;48.200;16.332;2022-10-23T08:36:36;13.10;99.90
13880;DHT22;7010;48.200;16.332;2022-10-23T08:39:12;13.20;99.90
13880;DHT22;7010;48.200;16.332;2022-10-23T08:41:45;13.40;99.90
13880;DHT22;7010;48.200;16.332;2022-10-23T08:44:20;13.50;99.90
13880;DHT22;7010;48.200;16.332;2022-10-23T08:47:03;13.60;99.90
13880;DHT22;7010;48.200;16.332;2022-10-23T08:49:42;13.80;99.90
13880;DHT22;7010;48.200;16.332;2022-10-23T08:52:16;14.00;99.90
13880;DHT22;7010;48.200;16.332;2022-10-23T08:55:01;14.20;99.90
13880;DHT22;7010;48.200;16.332;2022-10-23T08:57:34;14.40;99.90
13880;DHT22;7010;48.200;16.332;2022-10-23T09:00:12;14.50;99.90
13880;DHT22;7010;48.200;16.332;2022-10-23T09:02:43;14.60;99.90
13880;DHT22;7010;48.200;16.332;2022-10-23T09:05:17;14.80;99.90
13880;DHT22;7010;48.200;16.332;2022-10-23T09:08:04;15.00;99.90
13880;DHT22;7010;48.200;16.332;2022-10-23T09:11:00;15.20;99.90
13880;DHT22;7010;48.200;16.332;2022-10-23T09:14:15;15.20;99.90
13880;DHT22;7010;48.200;16.332;2022-10-23T09:16:58;15.40;99.90
13880;DHT22;7010;48.200;16.332;2022-10-23T09:19:29;15.60;99.90
13880;DHT22;7010;48.200;16.332;2022-10-23T09:21:59;15.90;99.90
13880;DHT22;7010;48.200;16.332;2022-10-23T09:24:28;16.00;99.90
13880;DHT22;7010;48.200;16.332;2022-10-23T09:26:58;16.10;99.90
13880;DHT22;7010;48.200;16.332;2022-10-23T09:29:28;16.30;99.90
13880;DHT22;7010;48.200;16.332;2022-10-23T09:31:59;16.20;99.90
13880;DHT22;7010;48.200;16.332;2022-10-23T09:34:29;16.10;99.90
13880;DHT22;7010;48.200;16.332;2022-10-23T09:37:01;16.10;99.90
13880;DHT22;7010;48.200;16.332;2022-10-23T09:39:31;16.10;99.90
13880;DHT22;7010;48.200;16.332;2022-10-23T09:42:18;16.10;99.90
13880;DHT22;7010;48.200;16.332;2022-10-23T09:44:49;16.00;99.90
13880;DHT22;7010;48.200;16.332;2022-10-23T09:47:18;16.10;99.90
13880;DHT22;7010;48.200;16.332;2022-10-23T09:49:50;16.10;99.90
13880;DHT22;7010;48.200;16.332;2022-10-23T09:52:25;16.10;99.90
13880;DHT22;7010;48.200;16.332;2022-10-23T09:54:58;16.10;99.90
13880;DHT22;7010;48.200;16.332;2022-10-23T09:57:29;16.10;99.90
13880;DHT22;7010;48.200;16.332;2022-10-23T10:00:01;16.20;99.90
13880;DHT22;7010;48.200;16.332;2022-10-23T10:02:32;16.40;99.90
13880;DHT22;7010;48.200;16.332;2022-10-23T10:05:21;16.50;99.90
13880;DHT22;7010;48.200;16.332;2022-10-23T10:07:58;16.60;99.90
13880;DHT22;7010;48.200;16.332;2022-10-23T10:10:34;16.80;99.90
13880;DHT22;7010;48.200;16.332;2022-10-23T10:13:09;17.00;99.90
13880;DHT22;7010;48.200;16.332;2022-10-23T10:15:49;17.30;99.90
13880;DHT22;7010;48.200;16.332;2022-10-23T10:18:25;17.50;99.90
13880;DHT22;7010;48.200;16.332;2022-10-23T10:21:01;17.70;99.90
13880;DHT22;7010;48.200;16.332;2022-10-23T10:23:41;18.10;99.90
13880;DHT22;7010;48.200;16.332;2022-10-23T10:26:21;18.70;99.90
13880;DHT22;7010;48.200;16.332;2022-10-23T10:29:01;18.80;99.90
13880;DHT22;7010;48.200;16.332;2022-10-23T10:31:40;18.90;99.90
13880;DHT22;7010;48.200;16.332;2022-10-23T10:34:22;18.90;99.90
13880;DHT22;7010;48.200;16.332;2022-10-23T10:36:54;18.90;99.90
13880;DHT22;7010;48.200;16.332;2022-10-23T10:39:32;18.90;99.90
13880;DHT22;7010;48.200;16.332;2022-10-23T10:42:23;18.90;99.90
13880;DHT22;7010;48.200;16.332;2022-10-23T10:45:05;19.10;99.90
13880;DHT22;7010;48.200;16.332;2022-10-23T10:47:42;19.30;99.90
13880;DHT22;7010;48.200;16.332;2022-10-23T10:50:20;19.50;99.90
13880;DHT22;7010;48.200;16.332;2022-10-23T10:52:56;19.60;99.90
13880;DHT22;7010;48.200;16.332;2022-10-23T10:55:32;19.90;99.90
13880;DHT22;7010;48.200;16.332;2022-10-23T10:58:08;20.00;99.90
13880;DHT22;7010;48.200;16.332;2022-10-23T11:00:39;20.10;99.90
13880;DHT22;7010;48.200;16.332;2022-10-23T11:03:15;20.10;99.90
13880;DHT22;7010;48.200;16.332;2022-10-23T11:05:50;20.10;99.90
13880;DHT22;7010;48.200;16.332;2022-10-23T11:08:25;20.10;99.90
13880;DHT22;7010;48.200;16.332;2022-10-23T11:11:20;20.00;99.90
13880;DHT22;7010;48.200;16.332;2022-10-23T11:13:51;20.10;99.90
13880;DHT22;7010;48.200;16.332;2022-10-23T11:16:25;20.20;99.90
13880;DHT22;7010;48.200;16.332;2022-10-23T11:19:02;20.60;99.90
13880;DHT22;7010;48.200;16.332;2022-10-23T11:21:42;20.80;99.90
13880;DHT22;7010;48.200;16.332;2022-10-23T11:24:45;20.90;99.90
13880;DHT22;7010;48.200;16.332;2022-10-23T11:27:27;21.20;99.90
13880;DHT22;7010;48.200;16.332;2022-10-23T11:30:27;21.30;99.90
13880;DHT22;7010;48.200;16.332;2022-10-23T11:36:12;21.10;99.90
13880;DHT22;7010;48.200;16.332;2022-10-23T11:38:45;20.90;99.90
13880;DHT22;7010;48.200;16.332;2022-10-23T11:41:20;20.70;99.90
13880;DHT22;7010;48.200;16.332;2022-10-23T11:43:55;20.60;99.90
13880;DHT22;7010;48.200;16.332;2022-10-23T11:46:32;20.90;99.90
13880;DHT22;7010;48.200;16.332;2022-10-23T11:49:03;21.00;99.90
13880;DHT22;7010;48.200;16.332;2022-10-23T11:51:34;20.80;99.90
13880;DHT22;7010;48.200;16.332;2022-10-23T11:54:23;21.00;99.90
13880;DHT22;7010;48.200;16.332;2022-10-23T11:57:09;21.20;99.90
13880;DHT22;7010;48.200;16.332;2022-10-23T11:59:53;21.10;99.90
13880;DHT22;7010;48.200;16.332;2022-10-23T12:02:28;21.20;99.90
13880;DHT22;7010;48.200;16.332;2022-10-23T12:05:02;21.10;99.90
13880;DHT22;7010;48.200;16.332;2022-10-23T12:07:33;21.00;99.90
13880;DHT22;7010;48.200;16.332;2022-10-23T12:10:04;21.00;99.90
13880;DHT22;7010;48.200;16.332;2022-10-23T12:12:35;21.00;99.90
13880;DHT22;7010;48.200;16.332;2022-10-23T12:15:18;21.00;99.90
13880;DHT22;7010;48.200;16.332;2022-10-23T12:17:48;20.90;99.90
13880;DHT22;7010;48.200;16.332;2022-10-23T12:20:35;20.90;99.90
13880;DHT22;7010;48.200;16.332;2022-10-23T12:23:19;20.80;99.90
13880;DHT22;7010;48.200;16.332;2022-10-23T12:26:06;21.00;99.90
13880;DHT22;7010;48.200;16.332;2022-10-23T12:28:43;20.90;99.90
13880;DHT22;7010;48.200;16.332;2022-10-23T12:31:26;21.00;99.90
13880;DHT22;7010;48.200;16.332;2022-10-23T12:34:06;20.80;99.90
13880;DHT22;7010;48.200;16.332;2022-10-23T12:36:45;20.60;99.90
13880;DHT22;7010;48.200;16.332;2022-10-23T12:39:30;20.20;99.90
13880;DHT22;7010;48.200;16.332;2022-10-23T12:41:59;19.90;99.90
13880;DHT22;7010;48.200;16.332;2022-10-23T12:44:31;19.50;99.90
13880;DHT22;7010;48.200;16.332;2022-10-23T12:47:02;19.00;99.90
13880;DHT22;7010;48.200;16.332;2022-10-23T12:49:32;18.70;99.90
13880;DHT22;7010;48.200;16.332;2022-10-23T12:52:03;18.50;99.90
13880;DHT22;7010;48.200;16.332;2022-10-23T12:54:40;18.40;99.90
13880;DHT22;7010;48.200;16.332;2022-10-23T12:57:21;18.30;99.90
13880;DHT22;7010;48.200;16.332;2022-10-23T12:59:57;18.10;99.90
13880;DHT22;7010;48.200;16.332;2022-10-23T13:02:32;17.90;99.90
13880;DHT22;7010;48.200;16.332;2022-10-23T13:05:04;17.70;99.90
13880;DHT22;7010;48.200;16.332;2022-10-23T13:07:35;17.50;99.90
13880;DHT22;7010;48.200;16.332;2022-10-23T13:10:14;17.40;99.90
13880;DHT22;7010;48.200;16.332;2022-10-23T13:13:22;17.40;99.90
13880;DHT22;7010;48.200;16.332;2022-10-23T13:15:53;17.20;99.90
13880;DHT22;7010;48.200;16.332;2022-10-23T13:18:28;17.10;99.90
13880;DHT22;7010;48.200;16.332;2022-10-23T13:21:15;17.10;99.90
13880;DHT22;7010;48.200;16.332;2022-10-23T13:23:46;17.10;99.90
13880;DHT22;7010;48.200;16.332;2022-10-23T13:27:02;17.10;99.90
13880;DHT22;7010;48.200;16.332;2022-10-23T13:30:37;17.00;99.90
13880;DHT22;7010;48.200;16.332;2022-10-23T13:33:21;17.00;99.90
13880;DHT22;7010;48.200;16.332;2022-10-23T13:35:59;17.10;99.90
13880;DHT22;7010;48.200;16.332;2022-10-23T13:38:38;17.30;99.90
13880;DHT22;7010;48.200;16.332;2022-10-23T13:41:12;17.50;99.90
13880;DHT22;7010;48.200;16.332;2022-10-23T13:43:42;17.90;99.90
13880;DHT22;7010;48.200;16.332;2022-10-23T13:46:13;18.20;99.90
13880;DHT22;7010;48.200;16.332;2022-10-23T13:48:42;18.30;99.90
13880;DHT22;7010;48.200;16.332;2022-10-23T13:51:20;18.50;99.90
13880;DHT22;7010;48.200;16.332;2022-10-23T13:53:50;18.40;99.90
13880;DHT22;7010;48.200;16.332;2022-10-23T13:56:31;18.50;99.90
13880;DHT22;7010;48.200;16.332;2022-10-23T13:59:11;18.40;99.90
13880;DHT22;7010;48.200;16.332;2022-10-23T14:01:45;18.20;99.90
13880;DHT22;7010;48.200;16.332;2022-10-23T14:04:17;18.20;99.90
13880;DHT22;7010;48.200;16.332;2022-10-23T14:06:51;18.00;99.90
13880;DHT22;7010;48.200;16.332;2022-10-23T14:09:25;17.90;99.90
13880;DHT22;7010;48.200;16.332;2022-10-23T14:12:00;17.80;99.90
13880;DHT22;7010;48.200;16.332;2022-10-23T14:14:41;17.70;99.90
13880;DHT22;7010;48.200;16.332;2022-10-23T14:17:21;17.60;99.90
13880;DHT22;7010;48.200;16.332;2022-10-23T14:19:58;17.40;99.90
13880;DHT22;7010;48.200;16.332;2022-10-23T14:22:34;17.40;99.90
13880;DHT22;7010;48.200;16.332;2022-10-23T14:25:37;17.30;99.90
13880;DHT22;7010;48.200;16.332;2022-10-23T14:28:10;17.20;99.90
13880;DHT22;7010;48.200;16.332;2022-10-23T14:30:41;17.10;99.90
13880;DHT22;7010;48.200;16.332;2022-10-23T14:33:12;17.00;99.90
13880;DHT22;7010;48.200;16.332;2022-10-23T14:36:13;16.80;99.90
13880;DHT22;7010;48.200;16.332;2022-10-23T14:38:49;16.70;99.90
13880;DHT22;7010;48.200;16.332;2022-10-23T14:41:27;16.60;99.90
13880;DHT22;7010;48.200;16.332;2022-10-23T14:47:07;16.50;99.90
13880;DHT22;7010;48.200;16.332;2022-10-23T14:50:10;16.40;99.90
13880;DHT22;7010;48.200;16.332;2022-10-23T14:52:45;16.30;99.90
13880;DHT22;7010;48.200;16.332;2022-10-23T14:55:44;16.30;99.90
13880;DHT22;7010;48.200;16.332;2022-10-23T14:58:30;16.30;99.90
13880;DHT22;7010;48.200;16.332;2022-10-23T15:01:06;16.20;99.90
13880;DHT22;7010;48.200;16.332;2022-10-23T15:03:42;16.10;99.90
13880;DHT22;7010;48.200;16.332;2022-10-23T15:09:27;15.90;99.90
13880;DHT22;7010;48.200;16.332;2022-10-23T15:12:40;15.70;99.90
13880;DHT22;7010;48.200;16.332;2022-10-23T15:15:41;15.60;99.90
13880;DHT22;7010;48.200;16.332;2022-10-23T15:18:29;15.40;99.90
13880;DHT22;7010;48.200;16.332;2022-10-23T15:21:38;15.40;99.90
13880;DHT22;7010;48.200;16.332;2022-10-23T15:24:27;15.30;99.90
13880;DHT22;7010;48.200;16.332;2022-10-23T15:27:08;15.20;99.90
13880;DHT22;7010;48.200;16.332;2022-10-23T15:29:52;15.20;99.90
13880;DHT22;7010;48.200;16.332;2022-10-23T15:32:50;15.20;99.90
13880;DHT22;7010;48.200;16.332;2022-10-23T15:35:19;15.10;99.90
13880;DHT22;7010;48.200;16.332;2022-10-23T15:38:05;15.00;99.90
13880;DHT22;7010;48.200;16.332;2022-10-23T15:40:41;15.00;99.90
13880;DHT22;7010;48.200;16.332;2022-10-23T15:43:21;14.90;99.90
13880;DHT22;7010;48.200;16.332;2022-10-23T15:46:19;14.90;99.90
13880;DHT22;7010;48.200;16.332;2022-10-23T15:48:57;14.80;99.90
13880;DHT22;7010;48.200;16.332;2022-10-23T15:51:27;14.70;99.90
13880;DHT22;7010;48.200;16.332;2022-10-23T15:54:04;14.60;99.90
13880;DHT22;7010;48.200;16.332;2022-10-23T15:56:37;14.60;99.90
13880;DHT22;7010;48.200;16.332;2022-10-23T15:59:21;14.60;99.90
13880;DHT22;7010;48.200;16.332;2022-10-23T16:02:01;14.50;99.90
13880;DHT22;7010;48.200;16.332;2022-10-23T16:04:43;14.50;99.90
13880;DHT22;7010;48.200;16.332;2022-10-23T16:07:24;14.50;99.90
13880;DHT22;7010;48.200;16.332;2022-10-23T16:09:56;14.50;99.90
13880;DHT22;7010;48.200;16.332;2022-10-23T16:12:28;14.40;99.90
13880;DHT22;7010;48.200;16.332;2022-10-23T16:15:00;14.40;99.90
13880;DHT22;7010;48.200;16.332;2022-10-23T16:17:35;14.30;99.90
13880;DHT22;7010;48.200;16.332;2022-10-23T16:20:07;14.40;99.90
13880;DHT22;7010;48.200;16.332;2022-10-23T16:22:45;14.30;99.90
13880;DHT22;7010;48.200;16.332;2022-10-23T16:25:16;14.30;99.90
13880;DHT22;7010;48.200;16.332;2022-10-23T16:27:57;14.30;99.90
13880;DHT22;7010;48.200;16.332;2022-10-23T16:30:41;14.20;99.90
13880;DHT22;7010;48.200;16.332;2022-10-23T16:33:26;14.20;99.90
13880;DHT22;7010;48.200;16.332;2022-10-23T16:36:16;14.10;99.90
13880;DHT22;7010;48.200;16.332;2022-10-23T16:39:01;14.10;99.90
13880;DHT22;7010;48.200;16.332;2022-10-23T16:41:41;14.10;99.90
13880;DHT22;7010;48.200;16.332;2022-10-23T16:44:22;14.10;99.90
13880;DHT22;7010;48.200;16.332;2022-10-23T16:47:02;14.10;99.90
13880;DHT22;7010;48.200;16.332;2022-10-23T16:49:43;14.10;99.90
13880;DHT22;7010;48.200;16.332;2022-10-23T16:52:17;14.10;99.90
13880;DHT22;7010;48.200;16.332;2022-10-23T16:54:54;14.10;99.90
13880;DHT22;7010;48.200;16.332;2022-10-23T16:57:36;14.10;99.90
13880;DHT22;7010;48.200;16.332;2022-10-23T17:00:19;14.10;99.90